This is the latest recevied weather packets stored in our database for station/object AF5AA. If no packets are shown the sender has not sent any weather packets the latest 1 day(s).
| Time | Temp. | Humidity | Pressure | Rain* | Wind** | Luminosity | Snow |
|---|---|---|---|---|---|---|---|
| 1778019807 | 28.33° C | 73% | 1004.5 hPa | 0 mm | 0 m/s | 73 W/m² | - |
| 1778019504 | 28.33° C | 73% | 1004.5 hPa | 0 mm | 0 m/s | 66 W/m² | - |
| 1778019201 | 28.33° C | 73% | 1004.7 hPa | 0 mm | 0 m/s | 76 W/m² | - |
| 1778018898 | 28.89° C | 74% | 1004.7 hPa | 0 mm | 0.45 m/s, 126° | 55 W/m² | - |
| 1778018595 | 28.89° C | 75% | 1004.7 hPa | 0 mm | 0.45 m/s, 128° | 73 W/m² | - |
| 1778018293 | 28.33° C | 76% | 1004.9 hPa | 0 mm | 0 m/s | 99 W/m² | - |
| 1778017990 | 28.89° C | 75% | 1005.1 hPa | 0 mm | 0.45 m/s, 107° | 67 W/m² | - |
| 1778017688 | 28.89° C | 72% | 1004.9 hPa | 0 mm | 0 m/s | 98 W/m² | - |
| 1778017386 | 29.44° C | 70% | 1004.9 hPa | 0 mm | 0 m/s | 173 W/m² | - |
| 1778017082 | 29.44° C | 71% | 1005 hPa | 0 mm | 0.45 m/s, 146° | 81 W/m² | - |
| 1778016780 | 29.44° C | 70% | 1005 hPa | 0 mm | 0.45 m/s, 150° | 63 W/m² | - |
| 1778016475 | 29.44° C | 70% | 1005.1 hPa | 0 mm | 0 m/s | 127 W/m² | - |
| 1778016173 | 28.89° C | 70% | 1005 hPa | 0 mm | 0 m/s | 100 W/m² | - |
| 1778015869 | 28.89° C | 70% | 1005.1 hPa | 0 mm | 0 m/s | 120 W/m² | - |
| 1778015567 | 28.89° C | 71% | 1005.2 hPa | 0 mm | 0.89 m/s, 136° | 90 W/m² | - |
| 1778015263 | 28.89° C | 71% | 1005 hPa | 0 mm | 0 m/s | 143 W/m² | - |
| 1778014960 | 28.89° C | 73% | 1005.3 hPa | 0 mm | 0 m/s | 88 W/m² | - |
| 1778014658 | 28.33° C | 73% | 1005.2 hPa | 0 mm | 0 m/s | 157 W/m² | - |
| 1778014356 | 28.89° C | 73% | 1005.3 hPa | 0 mm | 0 m/s | 128 W/m² | - |
| 1778014052 | 28.89° C | 72% | 1005.2 hPa | 0 mm | 0.45 m/s, 170° | 163 W/m² | - |
| 1778013750 | 28.89° C | 72% | 1005.5 hPa | 0 mm | 0 m/s | 139 W/m² | - |
| 1778013447 | 28.33° C | 71% | 1005.4 hPa | 0 mm | 0.45 m/s, 129° | 170 W/m² | - |
| 1778013144 | 28.33° C | 73% | 1005.7 hPa | 0 mm | 0.45 m/s, 134° | 122 W/m² | - |
| 1778012839 | 27.78° C | 73% | 1005.6 hPa | 0 mm | 0 m/s | 156 W/m² | - |
| 1778012536 | 27.78° C | 73% | 1005.8 hPa | 0 mm | 0 m/s | 85 W/m² | - |
* Rain latest hour (hover to see other rain measurements)
** Current wind speed in m/s (hover to see current wind gust speed)